sensor_id;sensor_type;location;lat;lon;timestamp;P1;durP1;ratioP1;P2;durP2;ratioP2
4389;SDS011;2209;48.982;8.406;2024-01-15T00:00:08;37.80;;;20.43;;
4389;SDS011;2209;48.982;8.406;2024-01-15T00:02:31;42.23;;;20.60;;
4389;SDS011;2209;48.982;8.406;2024-01-15T00:04:54;44.53;;;20.00;;
4389;SDS011;2209;48.982;8.406;2024-01-15T00:07:16;40.10;;;20.23;;
4389;SDS011;2209;48.982;8.406;2024-01-15T00:09:39;43.13;;;20.47;;
4389;SDS011;2209;48.982;8.406;2024-01-15T00:12:01;39.77;;;20.53;;
4389;SDS011;2209;48.982;8.406;2024-01-15T00:14:23;47.97;;;21.80;;
4389;SDS011;2209;48.982;8.406;2024-01-15T00:16:45;39.87;;;19.67;;
4389;SDS011;2209;48.982;8.406;2024-01-15T00:19:09;40.50;;;21.63;;
4389;SDS011;2209;48.982;8.406;2024-01-15T00:21:33;45.90;;;21.77;;
4389;SDS011;2209;48.982;8.406;2024-01-15T00:23:55;48.63;;;22.70;;
4389;SDS011;2209;48.982;8.406;2024-01-15T00:26:17;49.40;;;22.87;;
4389;SDS011;2209;48.982;8.406;2024-01-15T00:28:39;41.67;;;20.50;;
4389;SDS011;2209;48.982;8.406;2024-01-15T00:31:01;56.20;;;24.23;;
4389;SDS011;2209;48.982;8.406;2024-01-15T00:33:23;48.50;;;22.50;;
4389;SDS011;2209;48.982;8.406;2024-01-15T00:35:45;47.17;;;22.80;;
4389;SDS011;2209;48.982;8.406;2024-01-15T00:38:08;45.07;;;22.97;;
4389;SDS011;2209;48.982;8.406;2024-01-15T00:40:30;49.07;;;24.40;;
4389;SDS011;2209;48.982;8.406;2024-01-15T00:42:52;48.30;;;24.87;;
4389;SDS011;2209;48.982;8.406;2024-01-15T00:45:14;49.10;;;22.87;;
4389;SDS011;2209;48.982;8.406;2024-01-15T00:47:37;46.60;;;22.80;;
4389;SDS011;2209;48.982;8.406;2024-01-15T00:49:59;45.60;;;23.17;;
4389;SDS011;2209;48.982;8.406;2024-01-15T00:52:21;45.87;;;22.93;;
4389;SDS011;2209;48.982;8.406;2024-01-15T00:54:44;53.20;;;24.33;;
4389;SDS011;2209;48.982;8.406;2024-01-15T00:57:06;43.77;;;22.60;;
4389;SDS011;2209;48.982;8.406;2024-01-15T00:59:28;49.87;;;25.33;;
4389;SDS011;2209;48.982;8.406;2024-01-15T01:01:50;55.77;;;24.83;;
4389;SDS011;2209;48.982;8.406;2024-01-15T01:04:12;49.27;;;22.73;;
4389;SDS011;2209;48.982;8.406;2024-01-15T01:06:34;49.63;;;23.27;;
4389;SDS011;2209;48.982;8.406;2024-01-15T01:08:56;47.77;;;23.00;;
4389;SDS011;2209;48.982;8.406;2024-01-15T01:11:20;40.80;;;22.93;;
4389;SDS011;2209;48.982;8.406;2024-01-15T01:13:42;44.10;;;23.67;;
4389;SDS011;2209;48.982;8.406;2024-01-15T01:16:04;48.57;;;23.40;;
4389;SDS011;2209;48.982;8.406;2024-01-15T01:18:26;48.50;;;23.60;;
4389;SDS011;2209;48.982;8.406;2024-01-15T01:20:48;49.40;;;24.30;;
4389;SDS011;2209;48.982;8.406;2024-01-15T01:23:10;45.17;;;22.07;;
4389;SDS011;2209;48.982;8.406;2024-01-15T01:25:33;44.53;;;20.90;;
4389;SDS011;2209;48.982;8.406;2024-01-15T01:27:56;45.77;;;23.07;;
4389;SDS011;2209;48.982;8.406;2024-01-15T01:30:18;42.57;;;22.00;;
4389;SDS011;2209;48.982;8.406;2024-01-15T01:32:40;38.00;;;19.73;;
4389;SDS011;2209;48.982;8.406;2024-01-15T01:35:03;44.97;;;22.07;;
4389;SDS011;2209;48.982;8.406;2024-01-15T01:37:25;42.37;;;21.53;;
4389;SDS011;2209;48.982;8.406;2024-01-15T01:39:47;43.00;;;21.40;;
4389;SDS011;2209;48.982;8.406;2024-01-15T01:42:09;43.30;;;21.30;;
4389;SDS011;2209;48.982;8.406;2024-01-15T01:44:33;40.00;;;20.17;;
4389;SDS011;2209;48.982;8.406;2024-01-15T01:46:55;46.20;;;20.60;;
4389;SDS011;2209;48.982;8.406;2024-01-15T01:49:18;39.90;;;19.80;;
4389;SDS011;2209;48.982;8.406;2024-01-15T01:51:40;39.30;;;21.73;;
4389;SDS011;2209;48.982;8.406;2024-01-15T01:54:02;41.47;;;22.13;;
4389;SDS011;2209;48.982;8.406;2024-01-15T01:56:25;43.77;;;21.57;;
4389;SDS011;2209;48.982;8.406;2024-01-15T01:58:47;42.83;;;21.10;;
4389;SDS011;2209;48.982;8.406;2024-01-15T02:01:11;44.33;;;21.17;;
4389;SDS011;2209;48.982;8.406;2024-01-15T02:03:34;40.53;;;21.73;;
4389;SDS011;2209;48.982;8.406;2024-01-15T02:05:56;36.37;;;19.30;;
4389;SDS011;2209;48.982;8.406;2024-01-15T02:08:18;41.23;;;21.43;;
4389;SDS011;2209;48.982;8.406;2024-01-15T02:10:40;46.00;;;23.60;;
4389;SDS011;2209;48.982;8.406;2024-01-15T02:13:02;42.90;;;19.97;;
4389;SDS011;2209;48.982;8.406;2024-01-15T02:15:25;44.50;;;22.10;;
4389;SDS011;2209;48.982;8.406;2024-01-15T02:17:57;37.60;;;22.20;;
4389;SDS011;2209;48.982;8.406;2024-01-15T02:20:20;53.90;;;22.53;;
4389;SDS011;2209;48.982;8.406;2024-01-15T02:22:42;40.03;;;20.43;;
4389;SDS011;2209;48.982;8.406;2024-01-15T02:25:06;41.17;;;22.23;;
4389;SDS011;2209;48.982;8.406;2024-01-15T02:27:28;42.80;;;22.87;;
4389;SDS011;2209;48.982;8.406;2024-01-15T02:29:50;51.10;;;23.40;;
4389;SDS011;2209;48.982;8.406;2024-01-15T02:32:13;40.97;;;21.57;;
4389;SDS011;2209;48.982;8.406;2024-01-15T02:34:35;44.93;;;22.17;;
4389;SDS011;2209;48.982;8.406;2024-01-15T02:36:57;46.80;;;22.93;;
4389;SDS011;2209;48.982;8.406;2024-01-15T02:39:19;48.97;;;23.70;;
4389;SDS011;2209;48.982;8.406;2024-01-15T02:41:42;45.80;;;22.67;;
4389;SDS011;2209;48.982;8.406;2024-01-15T02:44:04;45.17;;;25.10;;
4389;SDS011;2209;48.982;8.406;2024-01-15T02:46:27;42.43;;;22.07;;
4389;SDS011;2209;48.982;8.406;2024-01-15T02:48:49;48.90;;;23.33;;
4389;SDS011;2209;48.982;8.406;2024-01-15T02:51:11;43.63;;;21.47;;
4389;SDS011;2209;48.982;8.406;2024-01-15T02:53:33;44.73;;;22.20;;
4389;SDS011;2209;48.982;8.406;2024-01-15T02:55:55;39.80;;;21.37;;
4389;SDS011;2209;48.982;8.406;2024-01-15T02:58:18;45.43;;;22.10;;
4389;SDS011;2209;48.982;8.406;2024-01-15T03:00:40;45.73;;;22.67;;
4389;SDS011;2209;48.982;8.406;2024-01-15T03:03:03;38.80;;;20.87;;
4389;SDS011;2209;48.982;8.406;2024-01-15T03:05:25;42.30;;;20.40;;
4389;SDS011;2209;48.982;8.406;2024-01-15T03:07:47;40.00;;;21.90;;
4389;SDS011;2209;48.982;8.406;2024-01-15T03:10:09;43.47;;;22.33;;
4389;SDS011;2209;48.982;8.406;2024-01-15T03:12:31;45.60;;;20.80;;
4389;SDS011;2209;48.982;8.406;2024-01-15T03:14:54;45.83;;;23.50;;
4389;SDS011;2209;48.982;8.406;2024-01-15T03:17:16;41.77;;;20.30;;
4389;SDS011;2209;48.982;8.406;2024-01-15T03:19:38;35.03;;;20.23;;
4389;SDS011;2209;48.982;8.406;2024-01-15T03:22:01;42.07;;;21.37;;
4389;SDS011;2209;48.982;8.406;2024-01-15T03:24:24;43.13;;;20.73;;
4389;SDS011;2209;48.982;8.406;2024-01-15T03:26:46;38.40;;;21.13;;
4389;SDS011;2209;48.982;8.406;2024-01-15T03:29:08;48.47;;;23.70;;
4389;SDS011;2209;48.982;8.406;2024-01-15T03:31:31;45.23;;;23.43;;
4389;SDS011;2209;48.982;8.406;2024-01-15T03:33:53;43.23;;;20.83;;
4389;SDS011;2209;48.982;8.406;2024-01-15T03:36:15;41.90;;;20.93;;
4389;SDS011;2209;48.982;8.406;2024-01-15T03:38:38;38.50;;;19.30;;
4389;SDS011;2209;48.982;8.406;2024-01-15T03:41:02;46.17;;;21.03;;
4389;SDS011;2209;48.982;8.406;2024-01-15T03:43:24;41.03;;;21.43;;
4389;SDS011;2209;48.982;8.406;2024-01-15T03:45:47;41.73;;;20.47;;
4389;SDS011;2209;48.982;8.406;2024-01-15T03:48:10;46.43;;;23.33;;
4389;SDS011;2209;48.982;8.406;2024-01-15T03:50:32;41.53;;;20.27;;
4389;SDS011;2209;48.982;8.406;2024-01-15T03:52:54;41.80;;;22.23;;
4389;SDS011;2209;48.982;8.406;2024-01-15T03:55:16;42.30;;;20.37;;
4389;SDS011;2209;48.982;8.406;2024-01-15T03:57:38;44.70;;;21.13;;
4389;SDS011;2209;48.982;8.406;2024-01-15T04:00:00;40.20;;;20.20;;
4389;SDS011;2209;48.982;8.406;2024-01-15T04:02:23;44.37;;;22.70;;
4389;SDS011;2209;48.982;8.406;2024-01-15T04:04:47;42.40;;;21.80;;
4389;SDS011;2209;48.982;8.406;2024-01-15T04:07:09;38.83;;;20.60;;
4389;SDS011;2209;48.982;8.406;2024-01-15T04:09:31;39.30;;;20.43;;
4389;SDS011;2209;48.982;8.406;2024-01-15T04:11:54;42.27;;;21.10;;
4389;SDS011;2209;48.982;8.406;2024-01-15T04:14:16;40.60;;;20.00;;
4389;SDS011;2209;48.982;8.406;2024-01-15T04:16:38;40.07;;;21.37;;
4389;SDS011;2209;48.982;8.406;2024-01-15T04:19:00;39.80;;;19.50;;
4389;SDS011;2209;48.982;8.406;2024-01-15T04:21:23;40.43;;;21.47;;
4389;SDS011;2209;48.982;8.406;2024-01-15T04:23:45;43.30;;;20.90;;
4389;SDS011;2209;48.982;8.406;2024-01-15T04:26:07;45.23;;;22.90;;
4389;SDS011;2209;48.982;8.406;2024-01-15T04:28:29;42.53;;;21.20;;
4389;SDS011;2209;48.982;8.406;2024-01-15T04:30:51;46.80;;;22.47;;
4389;SDS011;2209;48.982;8.406;2024-01-15T04:33:13;41.53;;;21.80;;
4389;SDS011;2209;48.982;8.406;2024-01-15T04:35:35;38.63;;;22.20;;
4389;SDS011;2209;48.982;8.406;2024-01-15T04:38:00;38.30;;;20.67;;
4389;SDS011;2209;48.982;8.406;2024-01-15T04:40:22;42.27;;;20.90;;
4389;SDS011;2209;48.982;8.406;2024-01-15T04:42:44;50.37;;;23.57;;
4389;SDS011;2209;48.982;8.406;2024-01-15T04:45:06;46.63;;;22.50;;
4389;SDS011;2209;48.982;8.406;2024-01-15T04:47:29;39.77;;;21.40;;
4389;SDS011;2209;48.982;8.406;2024-01-15T04:49:51;44.17;;;22.10;;
4389;SDS011;2209;48.982;8.406;2024-01-15T04:52:13;50.07;;;21.53;;
4389;SDS011;2209;48.982;8.406;2024-01-15T04:54:36;43.03;;;23.73;;
4389;SDS011;2209;48.982;8.406;2024-01-15T04:56:58;42.40;;;20.80;;
4389;SDS011;2209;48.982;8.406;2024-01-15T04:59:20;42.70;;;23.90;;
4389;SDS011;2209;48.982;8.406;2024-01-15T05:01:42;43.03;;;21.80;;
4389;SDS011;2209;48.982;8.406;2024-01-15T05:04:04;47.30;;;21.63;;
4389;SDS011;2209;48.982;8.406;2024-01-15T05:06:26;41.87;;;22.57;;
4389;SDS011;2209;48.982;8.406;2024-01-15T05:08:48;41.43;;;22.30;;
4389;SDS011;2209;48.982;8.406;2024-01-15T05:11:12;34.37;;;19.10;;
4389;SDS011;2209;48.982;8.406;2024-01-15T05:13:34;39.60;;;22.03;;
4389;SDS011;2209;48.982;8.406;2024-01-15T05:15:56;37.97;;;20.90;;
4389;SDS011;2209;48.982;8.406;2024-01-15T05:18:18;41.17;;;21.50;;
4389;SDS011;2209;48.982;8.406;2024-01-15T05:20:40;41.63;;;22.27;;
4389;SDS011;2209;48.982;8.406;2024-01-15T05:23:02;45.23;;;22.13;;
4389;SDS011;2209;48.982;8.406;2024-01-15T05:25:24;37.77;;;20.90;;
4389;SDS011;2209;48.982;8.406;2024-01-15T05:27:48;45.57;;;21.93;;
4389;SDS011;2209;48.982;8.406;2024-01-15T05:30:10;40.10;;;21.40;;
4389;SDS011;2209;48.982;8.406;2024-01-15T05:32:33;41.60;;;22.10;;
4389;SDS011;2209;48.982;8.406;2024-01-15T05:34:55;40.50;;;22.70;;
4389;SDS011;2209;48.982;8.406;2024-01-15T05:37:17;38.27;;;21.53;;
4389;SDS011;2209;48.982;8.406;2024-01-15T05:39:39;42.30;;;22.63;;
4389;SDS011;2209;48.982;8.406;2024-01-15T05:42:01;40.50;;;20.40;;
4389;SDS011;2209;48.982;8.406;2024-01-15T05:44:24;46.00;;;21.53;;
4389;SDS011;2209;48.982;8.406;2024-01-15T05:46:46;45.77;;;22.30;;
4389;SDS011;2209;48.982;8.406;2024-01-15T05:49:08;44.23;;;22.33;;
4389;SDS011;2209;48.982;8.406;2024-01-15T05:51:30;37.57;;;21.50;;
4389;SDS011;2209;48.982;8.406;2024-01-15T05:53:53;41.43;;;21.43;;
4389;SDS011;2209;48.982;8.406;2024-01-15T05:56:15;39.20;;;21.40;;
4389;SDS011;2209;48.982;8.406;2024-01-15T05:58:37;43.40;;;21.57;;
4389;SDS011;2209;48.982;8.406;2024-01-15T06:01:00;38.47;;;21.03;;
4389;SDS011;2209;48.982;8.406;2024-01-15T06:03:22;43.63;;;23.37;;
4389;SDS011;2209;48.982;8.406;2024-01-15T06:05:44;44.97;;;22.77;;
4389;SDS011;2209;48.982;8.406;2024-01-15T06:08:06;43.33;;;23.63;;
4389;SDS011;2209;48.982;8.406;2024-01-15T06:10:28;35.33;;;21.43;;
4389;SDS011;2209;48.982;8.406;2024-01-15T06:12:50;42.93;;;23.30;;
4389;SDS011;2209;48.982;8.406;2024-01-15T06:15:13;43.40;;;22.53;;
4389;SDS011;2209;48.982;8.406;2024-01-15T06:17:36;40.10;;;22.70;;
4389;SDS011;2209;48.982;8.406;2024-01-15T06:19:58;42.20;;;22.50;;
4389;SDS011;2209;48.982;8.406;2024-01-15T06:22:20;36.03;;;20.07;;
4389;SDS011;2209;48.982;8.406;2024-01-15T06:24:42;38.03;;;21.20;;
4389;SDS011;2209;48.982;8.406;2024-01-15T06:27:04;39.20;;;20.37;;
4389;SDS011;2209;48.982;8.406;2024-01-15T06:29:27;37.33;;;21.60;;
4389;SDS011;2209;48.982;8.406;2024-01-15T06:31:49;35.63;;;21.43;;
4389;SDS011;2209;48.982;8.406;2024-01-15T06:34:13;44.97;;;23.40;;
4389;SDS011;2209;48.982;8.406;2024-01-15T06:36:36;39.77;;;22.37;;
4389;SDS011;2209;48.982;8.406;2024-01-15T06:38:58;41.43;;;22.27;;
4389;SDS011;2209;48.982;8.406;2024-01-15T06:41:20;39.07;;;21.60;;
4389;SDS011;2209;48.982;8.406;2024-01-15T06:43:42;34.70;;;21.60;;
4389;SDS011;2209;48.982;8.406;2024-01-15T06:46:04;40.80;;;20.87;;
4389;SDS011;2209;48.982;8.406;2024-01-15T06:48:26;41.20;;;22.67;;
4389;SDS011;2209;48.982;8.406;2024-01-15T06:50:50;37.43;;;21.60;;
4389;SDS011;2209;48.982;8.406;2024-01-15T06:53:12;42.20;;;24.40;;
4389;SDS011;2209;48.982;8.406;2024-01-15T06:55:34;41.10;;;22.97;;
4389;SDS011;2209;48.982;8.406;2024-01-15T06:57:56;39.33;;;21.80;;
4389;SDS011;2209;48.982;8.406;2024-01-15T07:00:18;50.77;;;23.90;;
4389;SDS011;2209;48.982;8.406;2024-01-15T07:02:40;45.40;;;23.73;;
4389;SDS011;2209;48.982;8.406;2024-01-15T07:05:02;44.53;;;23.00;;
4389;SDS011;2209;48.982;8.406;2024-01-15T07:07:27;39.83;;;22.80;;
4389;SDS011;2209;48.982;8.406;2024-01-15T07:09:50;47.93;;;24.57;;
4389;SDS011;2209;48.982;8.406;2024-01-15T07:12:12;44.50;;;24.83;;
4389;SDS011;2209;48.982;8.406;2024-01-15T07:14:34;45.67;;;25.00;;
4389;SDS011;2209;48.982;8.406;2024-01-15T07:16:56;43.10;;;22.50;;
4389;SDS011;2209;48.982;8.406;2024-01-15T07:19:18;41.60;;;22.13;;
4389;SDS011;2209;48.982;8.406;2024-01-15T07:21:40;49.53;;;24.40;;
4389;SDS011;2209;48.982;8.406;2024-01-15T07:24:04;45.00;;;22.80;;
4389;SDS011;2209;48.982;8.406;2024-01-15T07:26:27;42.80;;;22.17;;
4389;SDS011;2209;48.982;8.406;2024-01-15T07:28:49;39.83;;;23.07;;
4389;SDS011;2209;48.982;8.406;2024-01-15T07:31:11;47.73;;;23.70;;
4389;SDS011;2209;48.982;8.406;2024-01-15T07:33:33;35.53;;;21.40;;
4389;SDS011;2209;48.982;8.406;2024-01-15T07:35:55;45.73;;;24.10;;
4389;SDS011;2209;48.982;8.406;2024-01-15T07:38:17;44.53;;;23.93;;
4389;SDS011;2209;48.982;8.406;2024-01-15T07:40:40;44.80;;;22.07;;
4389;SDS011;2209;48.982;8.406;2024-01-15T07:43:02;44.10;;;22.90;;
4389;SDS011;2209;48.982;8.406;2024-01-15T07:45:24;43.07;;;23.13;;
4389;SDS011;2209;48.982;8.406;2024-01-15T07:47:46;38.10;;;21.07;;
4389;SDS011;2209;48.982;8.406;2024-01-15T07:50:09;43.03;;;21.97;;
4389;SDS011;2209;48.982;8.406;2024-01-15T07:52:31;40.00;;;22.73;;
4389;SDS011;2209;48.982;8.406;2024-01-15T07:54:53;39.23;;;21.97;;
4389;SDS011;2209;48.982;8.406;2024-01-15T07:57:17;43.70;;;22.73;;
4389;SDS011;2209;48.982;8.406;2024-01-15T07:59:39;44.87;;;22.97;;
4389;SDS011;2209;48.982;8.406;2024-01-15T08:02:01;44.63;;;23.03;;
4389;SDS011;2209;48.982;8.406;2024-01-15T08:04:24;35.30;;;21.27;;
4389;SDS011;2209;48.982;8.406;2024-01-15T08:06:46;45.30;;;23.93;;
4389;SDS011;2209;48.982;8.406;2024-01-15T08:09:08;46.53;;;24.40;;
4389;SDS011;2209;48.982;8.406;2024-01-15T08:11:29;42.20;;;23.90;;
4389;SDS011;2209;48.982;8.406;2024-01-15T08:13:54;43.93;;;24.27;;
4389;SDS011;2209;48.982;8.406;2024-01-15T08:16:16;42.43;;;25.70;;
4389;SDS011;2209;48.982;8.406;2024-01-15T08:18:40;46.83;;;24.40;;
4389;SDS011;2209;48.982;8.406;2024-01-15T08:21:03;47.20;;;23.30;;
4389;SDS011;2209;48.982;8.406;2024-01-15T08:23:27;41.13;;;21.50;;
4389;SDS011;2209;48.982;8.406;2024-01-15T08:25:51;37.20;;;21.70;;
4389;SDS011;2209;48.982;8.406;2024-01-15T08:28:13;43.50;;;23.27;;
4389;SDS011;2209;48.982;8.406;2024-01-15T08:30:37;41.33;;;22.27;;
4389;SDS011;2209;48.982;8.406;2024-01-15T08:32:59;42.43;;;23.30;;
4389;SDS011;2209;48.982;8.406;2024-01-15T08:35:21;38.07;;;23.00;;
4389;SDS011;2209;48.982;8.406;2024-01-15T08:37:46;40.83;;;22.20;;
4389;SDS011;2209;48.982;8.406;2024-01-15T08:40:08;38.00;;;21.63;;
4389;SDS011;2209;48.982;8.406;2024-01-15T08:42:31;45.20;;;23.80;;
4389;SDS011;2209;48.982;8.406;2024-01-15T08:44:53;37.67;;;20.43;;
4389;SDS011;2209;48.982;8.406;2024-01-15T08:47:17;39.53;;;21.37;;
4389;SDS011;2209;48.982;8.406;2024-01-15T08:49:39;38.43;;;21.57;;
4389;SDS011;2209;48.982;8.406;2024-01-15T08:52:03;37.67;;;20.80;;
4389;SDS011;2209;48.982;8.406;2024-01-15T08:54:25;41.30;;;21.40;;
4389;SDS011;2209;48.982;8.406;2024-01-15T08:56:47;38.70;;;21.40;;
4389;SDS011;2209;48.982;8.406;2024-01-15T08:59:09;42.23;;;20.90;;
4389;SDS011;2209;48.982;8.406;2024-01-15T09:01:32;38.20;;;21.40;;
4389;SDS011;2209;48.982;8.406;2024-01-15T09:03:55;34.10;;;20.43;;
4389;SDS011;2209;48.982;8.406;2024-01-15T09:06:18;35.43;;;19.00;;
4389;SDS011;2209;48.982;8.406;2024-01-15T09:08:41;32.13;;;19.77;;
4389;SDS011;2209;48.982;8.406;2024-01-15T09:11:03;37.63;;;20.70;;
4389;SDS011;2209;48.982;8.406;2024-01-15T09:13:25;39.70;;;20.03;;
4389;SDS011;2209;48.982;8.406;2024-01-15T09:15:47;29.73;;;18.00;;
4389;SDS011;2209;48.982;8.406;2024-01-15T09:18:09;32.40;;;18.70;;
4389;SDS011;2209;48.982;8.406;2024-01-15T09:20:32;29.47;;;17.30;;
4389;SDS011;2209;48.982;8.406;2024-01-15T09:22:54;33.10;;;18.17;;
4389;SDS011;2209;48.982;8.406;2024-01-15T09:25:17;30.43;;;18.10;;
4389;SDS011;2209;48.982;8.406;2024-01-15T09:27:39;30.00;;;17.50;;
4389;SDS011;2209;48.982;8.406;2024-01-15T09:30:01;29.67;;;17.00;;
4389;SDS011;2209;48.982;8.406;2024-01-15T09:32:23;34.70;;;18.57;;
4389;SDS011;2209;48.982;8.406;2024-01-15T09:34:45;29.67;;;18.40;;
4389;SDS011;2209;48.982;8.406;2024-01-15T09:37:09;25.67;;;16.67;;
4389;SDS011;2209;48.982;8.406;2024-01-15T09:39:31;36.50;;;18.40;;
4389;SDS011;2209;48.982;8.406;2024-01-15T09:41:53;32.60;;;17.40;;
4389;SDS011;2209;48.982;8.406;2024-01-15T09:44:15;37.33;;;18.90;;
4389;SDS011;2209;48.982;8.406;2024-01-15T09:46:38;36.83;;;18.57;;
4389;SDS011;2209;48.982;8.406;2024-01-15T09:49:01;31.93;;;17.90;;
4389;SDS011;2209;48.982;8.406;2024-01-15T09:51:25;35.93;;;18.27;;
4389;SDS011;2209;48.982;8.406;2024-01-15T09:53:48;34.87;;;18.13;;
4389;SDS011;2209;48.982;8.406;2024-01-15T09:56:12;33.97;;;19.33;;
4389;SDS011;2209;48.982;8.406;2024-01-15T09:58:36;34.30;;;19.73;;
4389;SDS011;2209;48.982;8.406;2024-01-15T10:00:59;34.97;;;18.20;;
4389;SDS011;2209;48.982;8.406;2024-01-15T10:03:23;34.80;;;18.03;;
4389;SDS011;2209;48.982;8.406;2024-01-15T10:05:45;31.97;;;18.70;;
4389;SDS011;2209;48.982;8.406;2024-01-15T10:08:07;30.73;;;19.40;;
4389;SDS011;2209;48.982;8.406;2024-01-15T10:10:32;33.33;;;18.63;;
4389;SDS011;2209;48.982;8.406;2024-01-15T10:12:54;36.20;;;19.00;;
4389;SDS011;2209;48.982;8.406;2024-01-15T10:15:16;34.67;;;19.27;;
4389;SDS011;2209;48.982;8.406;2024-01-15T10:17:38;34.03;;;19.50;;
4389;SDS011;2209;48.982;8.406;2024-01-15T10:20:02;30.90;;;17.57;;
4389;SDS011;2209;48.982;8.406;2024-01-15T10:22:25;32.40;;;18.00;;
4389;SDS011;2209;48.982;8.406;2024-01-15T10:24:47;32.40;;;17.90;;
4389;SDS011;2209;48.982;8.406;2024-01-15T10:27:11;39.70;;;20.10;;
4389;SDS011;2209;48.982;8.406;2024-01-15T10:29:33;34.97;;;17.90;;
4389;SDS011;2209;48.982;8.406;2024-01-15T10:31:55;30.57;;;17.43;;
4389;SDS011;2209;48.982;8.406;2024-01-15T10:34:17;33.90;;;18.17;;
4389;SDS011;2209;48.982;8.406;2024-01-15T10:36:41;28.40;;;17.40;;
4389;SDS011;2209;48.982;8.406;2024-01-15T10:39:08;35.83;;;18.20;;
4389;SDS011;2209;48.982;8.406;2024-01-15T10:41:30;35.20;;;18.03;;
4389;SDS011;2209;48.982;8.406;2024-01-15T10:43:53;30.93;;;16.67;;
4389;SDS011;2209;48.982;8.406;2024-01-15T10:46:15;30.93;;;17.93;;
4389;SDS011;2209;48.982;8.406;2024-01-15T10:48:37;28.60;;;17.13;;
4389;SDS011;2209;48.982;8.406;2024-01-15T10:51:00;39.70;;;16.80;;
4389;SDS011;2209;48.982;8.406;2024-01-15T10:53:23;33.80;;;16.53;;
4389;SDS011;2209;48.982;8.406;2024-01-15T10:55:46;39.53;;;18.20;;
4389;SDS011;2209;48.982;8.406;2024-01-15T10:58:09;31.00;;;16.87;;
4389;SDS011;2209;48.982;8.406;2024-01-15T11:00:33;28.90;;;17.30;;
4389;SDS011;2209;48.982;8.406;2024-01-15T11:02:58;31.07;;;17.17;;
4389;SDS011;2209;48.982;8.406;2024-01-15T11:05:22;29.53;;;16.80;;
4389;SDS011;2209;48.982;8.406;2024-01-15T11:07:45;28.87;;;16.17;;
4389;SDS011;2209;48.982;8.406;2024-01-15T11:10:07;30.60;;;16.80;;
4389;SDS011;2209;48.982;8.406;2024-01-15T11:12:50;29.10;;;17.63;;
4389;SDS011;2209;48.982;8.406;2024-01-15T11:15:15;30.57;;;17.53;;
4389;SDS011;2209;48.982;8.406;2024-01-15T11:18:01;28.50;;;16.87;;
4389;SDS011;2209;48.982;8.406;2024-01-15T11:20:26;29.30;;;16.97;;
4389;SDS011;2209;48.982;8.406;2024-01-15T11:22:48;31.37;;;15.73;;
4389;SDS011;2209;48.982;8.406;2024-01-15T11:25:12;29.37;;;16.87;;
4389;SDS011;2209;48.982;8.406;2024-01-15T11:27:42;34.50;;;16.43;;
4389;SDS011;2209;48.982;8.406;2024-01-15T11:30:06;27.47;;;15.70;;
4389;SDS011;2209;48.982;8.406;2024-01-15T11:32:33;28.20;;;15.63;;
4389;SDS011;2209;48.982;8.406;2024-01-15T11:34:58;27.97;;;17.00;;
4389;SDS011;2209;48.982;8.406;2024-01-15T11:37:22;28.20;;;15.27;;
4389;SDS011;2209;48.982;8.406;2024-01-15T11:39:44;27.57;;;16.30;;
4389;SDS011;2209;48.982;8.406;2024-01-15T11:42:09;23.73;;;16.30;;
4389;SDS011;2209;48.982;8.406;2024-01-15T11:44:32;36.87;;;17.87;;
4389;SDS011;2209;48.982;8.406;2024-01-15T11:46:57;25.53;;;15.70;;
4389;SDS011;2209;48.982;8.406;2024-01-15T11:49:23;27.57;;;15.90;;
4389;SDS011;2209;48.982;8.406;2024-01-15T11:51:56;27.37;;;16.33;;
4389;SDS011;2209;48.982;8.406;2024-01-15T11:54:20;27.27;;;14.57;;
4389;SDS011;2209;48.982;8.406;2024-01-15T11:56:45;26.00;;;15.50;;
4389;SDS011;2209;48.982;8.406;2024-01-15T11:59:07;25.73;;;15.03;;
4389;SDS011;2209;48.982;8.406;2024-01-15T12:01:29;36.77;;;15.40;;
4389;SDS011;2209;48.982;8.406;2024-01-15T12:03:52;28.03;;;14.70;;
4389;SDS011;2209;48.982;8.406;2024-01-15T12:06:14;24.20;;;14.20;;
4389;SDS011;2209;48.982;8.406;2024-01-15T12:08:37;23.97;;;14.13;;
4389;SDS011;2209;48.982;8.406;2024-01-15T12:10:59;20.70;;;13.77;;
4389;SDS011;2209;48.982;8.406;2024-01-15T12:13:22;24.20;;;14.00;;
4389;SDS011;2209;48.982;8.406;2024-01-15T12:15:44;31.83;;;15.23;;
4389;SDS011;2209;48.982;8.406;2024-01-15T12:18:08;21.93;;;13.90;;
4389;SDS011;2209;48.982;8.406;2024-01-15T12:20:31;22.13;;;14.47;;
4389;SDS011;2209;48.982;8.406;2024-01-15T12:22:54;23.83;;;13.90;;
4389;SDS011;2209;48.982;8.406;2024-01-15T12:25:18;16.30;;;11.97;;
4389;SDS011;2209;48.982;8.406;2024-01-15T12:27:40;24.23;;;13.20;;
4389;SDS011;2209;48.982;8.406;2024-01-15T12:30:02;18.17;;;11.73;;
4389;SDS011;2209;48.982;8.406;2024-01-15T12:32:25;20.60;;;13.00;;
4389;SDS011;2209;48.982;8.406;2024-01-15T12:34:48;21.20;;;12.27;;
4389;SDS011;2209;48.982;8.406;2024-01-15T12:37:10;18.57;;;11.07;;
4389;SDS011;2209;48.982;8.406;2024-01-15T12:39:33;23.10;;;12.73;;
4389;SDS011;2209;48.982;8.406;2024-01-15T12:41:57;17.23;;;12.07;;
4389;SDS011;2209;48.982;8.406;2024-01-15T12:44:19;17.30;;;10.70;;
4389;SDS011;2209;48.982;8.406;2024-01-15T12:46:41;14.27;;;9.70;;
4389;SDS011;2209;48.982;8.406;2024-01-15T12:49:03;16.20;;;10.57;;
4389;SDS011;2209;48.982;8.406;2024-01-15T12:51:25;21.07;;;11.43;;
4389;SDS011;2209;48.982;8.406;2024-01-15T12:53:48;18.23;;;10.67;;
4389;SDS011;2209;48.982;8.406;2024-01-15T12:56:10;14.87;;;10.07;;
4389;SDS011;2209;48.982;8.406;2024-01-15T12:58:33;18.00;;;10.60;;
4389;SDS011;2209;48.982;8.406;2024-01-15T13:00:55;14.13;;;10.10;;
4389;SDS011;2209;48.982;8.406;2024-01-15T13:03:18;16.43;;;10.33;;
4389;SDS011;2209;48.982;8.406;2024-01-15T13:05:40;15.40;;;9.90;;
4389;SDS011;2209;48.982;8.406;2024-01-15T13:08:02;15.73;;;10.50;;
4389;SDS011;2209;48.982;8.406;2024-01-15T13:10:25;16.50;;;10.73;;
4389;SDS011;2209;48.982;8.406;2024-01-15T13:12:50;11.40;;;8.73;;
4389;SDS011;2209;48.982;8.406;2024-01-15T13:15:13;13.80;;;10.03;;
4389;SDS011;2209;48.982;8.406;2024-01-15T13:17:36;15.03;;;9.67;;
4389;SDS011;2209;48.982;8.406;2024-01-15T13:19:58;17.33;;;9.60;;
4389;SDS011;2209;48.982;8.406;2024-01-15T13:22:20;12.80;;;10.43;;
4389;SDS011;2209;48.982;8.406;2024-01-15T13:24:42;13.27;;;9.90;;
4389;SDS011;2209;48.982;8.406;2024-01-15T13:27:04;20.40;;;11.00;;
4389;SDS011;2209;48.982;8.406;2024-01-15T13:29:27;16.40;;;10.37;;
4389;SDS011;2209;48.982;8.406;2024-01-15T13:31:50;13.87;;;9.80;;
4389;SDS011;2209;48.982;8.406;2024-01-15T13:34:12;12.37;;;9.30;;
4389;SDS011;2209;48.982;8.406;2024-01-15T13:36:34;13.87;;;9.80;;
4389;SDS011;2209;48.982;8.406;2024-01-15T13:38:59;12.83;;;9.10;;
4389;SDS011;2209;48.982;8.406;2024-01-15T13:41:21;15.27;;;9.60;;
4389;SDS011;2209;48.982;8.406;2024-01-15T13:46:11;16.03;;;10.20;;
4389;SDS011;2209;48.982;8.406;2024-01-15T13:48:34;15.53;;;10.27;;
4389;SDS011;2209;48.982;8.406;2024-01-15T13:50:56;13.23;;;9.07;;
4389;SDS011;2209;48.982;8.406;2024-01-15T13:53:19;13.63;;;9.50;;
4389;SDS011;2209;48.982;8.406;2024-01-15T13:55:41;12.23;;;9.20;;
4389;SDS011;2209;48.982;8.406;2024-01-15T13:58:03;12.07;;;9.00;;
4389;SDS011;2209;48.982;8.406;2024-01-15T14:00:26;17.53;;;11.10;;
4389;SDS011;2209;48.982;8.406;2024-01-15T14:02:48;14.93;;;9.90;;
4389;SDS011;2209;48.982;8.406;2024-01-15T14:05:11;12.73;;;9.93;;
4389;SDS011;2209;48.982;8.406;2024-01-15T14:07:34;12.00;;;8.57;;
4389;SDS011;2209;48.982;8.406;2024-01-15T14:09:56;14.10;;;10.00;;
4389;SDS011;2209;48.982;8.406;2024-01-15T14:12:18;14.43;;;10.83;;
4389;SDS011;2209;48.982;8.406;2024-01-15T14:14:40;12.53;;;8.37;;
4389;SDS011;2209;48.982;8.406;2024-01-15T14:17:02;13.17;;;9.43;;
4389;SDS011;2209;48.982;8.406;2024-01-15T14:19:24;14.33;;;9.53;;
4389;SDS011;2209;48.982;8.406;2024-01-15T14:21:48;11.47;;;9.40;;